createdAt,value
2022-08-28T00:00:08.685Z,17.80
2022-08-28T00:01:09.404Z,18.70
2022-08-28T00:02:08.669Z,17.60
2022-08-28T00:03:08.735Z,17.10
2022-08-28T00:04:08.642Z,18.10
2022-08-28T00:05:08.758Z,17.70
2022-08-28T00:06:08.623Z,18.20
2022-08-28T00:07:08.619Z,18.20
2022-08-28T00:08:08.657Z,18.10
2022-08-28T00:09:08.585Z,18.40
2022-08-28T00:10:08.581Z,18.50
2022-08-28T00:11:08.567Z,18.30
2022-08-28T00:12:08.559Z,18.60
2022-08-28T00:13:08.569Z,17.90
2022-08-28T00:14:08.542Z,18.00
2022-08-28T00:15:08.528Z,18.90
2022-08-28T00:16:08.567Z,18.40
2022-08-28T00:17:08.517Z,19.00
2022-08-28T00:18:08.525Z,18.60
2022-08-28T00:19:08.488Z,19.00
2022-08-28T00:20:08.479Z,18.60
2022-08-28T00:21:08.461Z,18.20
2022-08-28T00:22:08.460Z,19.10
2022-08-28T00:23:08.460Z,18.30
2022-08-28T00:24:08.435Z,18.80
2022-08-28T00:25:08.423Z,18.10
2022-08-28T00:26:08.420Z,18.10
2022-08-28T00:27:08.399Z,18.60
2022-08-28T00:28:08.572Z,18.50
2022-08-28T00:29:08.380Z,18.90
2022-08-28T00:30:08.374Z,19.10
2022-08-28T00:31:08.415Z,19.30
2022-08-28T00:32:08.358Z,18.90
2022-08-28T00:33:08.359Z,19.20
2022-08-28T00:34:08.338Z,19.00
2022-08-28T00:35:08.324Z,19.00
2022-08-28T00:36:08.317Z,18.90
2022-08-28T00:37:08.301Z,18.30
2022-08-28T00:38:08.319Z,20.00
2022-08-28T00:39:08.280Z,19.40
2022-08-28T00:40:08.319Z,19.20
2022-08-28T00:41:08.260Z,19.20
2022-08-28T00:42:08.255Z,19.50
2022-08-28T00:43:08.256Z,20.30
2022-08-28T00:44:08.237Z,19.80
2022-08-28T00:45:08.219Z,19.60
2022-08-28T00:46:08.252Z,19.90
2022-08-28T00:47:08.205Z,20.30
2022-08-28T00:48:08.375Z,20.00
2022-08-28T00:49:08.175Z,20.20
2022-08-28T00:50:08.170Z,20.70
2022-08-28T00:51:08.155Z,20.80
2022-08-28T00:52:08.237Z,20.40
2022-08-28T00:53:08.154Z,20.20
2022-08-28T00:54:08.340Z,20.90
2022-08-28T00:55:08.116Z,20.70
2022-08-28T00:56:12.240Z,20.20
2022-08-28T00:57:08.099Z,20.10
2022-08-28T00:58:08.195Z,20.60
2022-08-28T00:59:08.088Z,20.90
2022-08-28T01:00:08.072Z,20.50
2022-08-28T01:01:08.067Z,20.30
2022-08-28T01:02:08.137Z,20.80
2022-08-28T01:03:08.131Z,20.90
2022-08-28T01:04:08.027Z,20.40
2022-08-28T01:05:08.011Z,20.30
2022-08-28T01:06:08.007Z,20.30
2022-08-28T01:07:07.991Z,20.40
2022-08-28T01:08:08.005Z,21.00
2022-08-28T01:09:07.976Z,21.10
2022-08-28T01:10:07.966Z,21.10
2022-08-28T01:11:07.956Z,20.60
2022-08-28T01:12:07.942Z,21.40
2022-08-28T01:13:07.947Z,22.30
2022-08-28T01:14:07.923Z,21.60
2022-08-28T01:15:07.909Z,20.80
2022-08-28T01:16:07.960Z,20.90
2022-08-28T01:17:07.889Z,21.10
2022-08-28T01:18:08.582Z,21.30
2022-08-28T01:19:07.867Z,21.10
2022-08-28T01:20:07.859Z,21.60
2022-08-28T01:21:07.850Z,22.10
2022-08-28T01:22:07.853Z,21.20
2022-08-28T01:23:07.853Z,20.50
2022-08-28T01:24:07.819Z,21.00
2022-08-28T01:25:07.806Z,20.50
2022-08-28T01:26:11.666Z,20.70
2022-08-28T01:27:07.800Z,21.20
2022-08-28T01:28:07.799Z,20.60
2022-08-28T01:29:07.764Z,19.20
2022-08-28T01:30:07.759Z,19.90
2022-08-28T01:31:07.802Z,20.20
2022-08-28T01:32:07.742Z,19.70
2022-08-28T01:33:07.748Z,20.60
2022-08-28T01:34:07.723Z,19.40
2022-08-28T01:35:07.707Z,20.20
2022-08-28T01:36:07.702Z,20.90
2022-08-28T01:37:07.682Z,21.50
2022-08-28T01:38:07.699Z,20.50
2022-08-28T01:39:07.665Z,20.80
2022-08-28T01:40:07.750Z,21.80
2022-08-28T01:41:07.646Z,21.70
2022-08-28T01:42:07.638Z,21.90
2022-08-28T01:43:07.644Z,22.80
2022-08-28T01:44:07.623Z,22.20
2022-08-28T01:45:07.604Z,21.80
2022-08-28T01:46:07.642Z,20.60
2022-08-28T01:47:07.585Z,21.30
2022-08-28T01:48:07.598Z,20.10
2022-08-28T01:49:07.563Z,21.40
2022-08-28T01:50:07.554Z,19.80
2022-08-28T01:51:07.550Z,20.30
2022-08-28T01:52:07.535Z,19.90
2022-08-28T01:53:07.538Z,20.30
2022-08-28T01:54:07.524Z,20.00
2022-08-28T01:55:07.511Z,20.30
2022-08-28T01:56:07.492Z,20.90
2022-08-28T01:57:07.477Z,19.50
2022-08-28T01:58:07.494Z,19.40
2022-08-28T01:59:07.469Z,18.70
2022-08-28T02:00:07.451Z,18.80
2022-08-28T02:01:07.436Z,19.40
2022-08-28T02:02:07.493Z,19.90
2022-08-28T02:03:07.439Z,19.40
2022-08-28T02:04:07.476Z,19.30
2022-08-28T02:05:07.397Z,19.70
2022-08-28T02:06:07.389Z,20.70
2022-08-28T02:07:07.373Z,20.90
2022-08-28T02:08:07.389Z,20.10
2022-08-28T02:09:07.354Z,20.80
2022-08-28T02:10:07.364Z,20.40
2022-08-28T02:11:07.334Z,19.30
2022-08-28T02:12:07.331Z,20.50
2022-08-28T02:13:07.331Z,20.10
2022-08-28T02:14:07.308Z,19.40
2022-08-28T02:15:07.293Z,19.60
2022-08-28T02:16:07.361Z,19.80
2022-08-28T02:17:07.275Z,19.40
2022-08-28T02:18:07.285Z,19.20
2022-08-28T02:19:07.250Z,20.00
2022-08-28T02:20:07.245Z,19.00
2022-08-28T02:21:07.230Z,20.30
2022-08-28T02:22:07.224Z,20.10
2022-08-28T02:23:07.232Z,19.80
2022-08-28T02:24:07.203Z,19.30
2022-08-28T02:25:07.190Z,19.30
2022-08-28T02:26:07.183Z,20.10
2022-08-28T02:27:07.167Z,19.50
2022-08-28T02:28:07.183Z,19.80
2022-08-28T02:29:07.148Z,20.00
2022-08-28T02:30:07.139Z,20.00
2022-08-28T02:31:07.285Z,19.70
2022-08-28T02:32:07.121Z,20.10
2022-08-28T02:33:07.132Z,21.40
2022-08-28T02:34:07.107Z,21.20
2022-08-28T02:35:12.118Z,20.20
2022-08-28T02:36:07.091Z,20.80
2022-08-28T02:37:07.066Z,21.30
2022-08-28T02:38:07.137Z,21.10
2022-08-28T02:39:07.049Z,20.30
2022-08-28T02:40:07.119Z,20.70
2022-08-28T02:41:07.028Z,20.30
2022-08-28T02:42:07.825Z,20.00
2022-08-28T02:43:07.027Z,20.70
2022-08-28T02:44:07.002Z,20.10
2022-08-28T02:45:06.986Z,19.90
2022-08-28T02:46:07.045Z,19.90
2022-08-28T02:47:06.964Z,21.70
2022-08-28T02:48:12.023Z,21.50
2022-08-28T02:49:07.183Z,22.50
2022-08-28T02:50:06.980Z,21.70
2022-08-28T02:51:06.921Z,22.10
2022-08-28T02:52:06.925Z,22.50
2022-08-28T02:53:06.925Z,21.90
2022-08-28T02:54:06.903Z,21.50
2022-08-28T02:55:06.911Z,22.90
2022-08-28T02:56:06.875Z,21.20
2022-08-28T02:57:06.860Z,21.00
2022-08-28T02:58:06.984Z,22.30
2022-08-28T02:59:06.860Z,22.00
2022-08-28T03:00:06.852Z,21.20
2022-08-28T03:01:06.894Z,23.00
2022-08-28T03:02:06.820Z,23.00
2022-08-28T03:03:06.800Z,22.20
2022-08-28T03:04:06.813Z,22.80
2022-08-28T03:05:06.781Z,22.20
2022-08-28T03:06:06.782Z,22.40
2022-08-28T03:07:06.799Z,22.30
2022-08-28T03:08:06.873Z,24.00
2022-08-28T03:09:06.766Z,23.50
2022-08-28T03:10:06.738Z,25.00
2022-08-28T03:11:06.741Z,22.50
2022-08-28T03:12:06.715Z,26.10
2022-08-28T03:13:06.718Z,25.50
2022-08-28T03:14:06.722Z,23.60
2022-08-28T03:15:06.684Z,25.50
2022-08-28T03:16:06.667Z,26.20
2022-08-28T03:17:06.662Z,25.50
2022-08-28T03:18:08.172Z,25.20
2022-08-28T03:19:06.659Z,24.20
2022-08-28T03:20:06.630Z,25.20
2022-08-28T03:21:06.619Z,25.50
2022-08-28T03:22:06.605Z,24.30
2022-08-28T03:23:06.605Z,24.10
2022-08-28T03:24:06.601Z,25.10
2022-08-28T03:25:06.583Z,23.80
2022-08-28T03:26:06.562Z,24.70
2022-08-28T03:27:06.561Z,24.70
2022-08-28T03:28:06.627Z,24.60
2022-08-28T03:29:06.563Z,24.30
2022-08-28T03:30:06.521Z,25.10
2022-08-28T03:31:06.606Z,24.30
2022-08-28T03:32:06.501Z,23.90
2022-08-28T03:33:06.541Z,23.00
2022-08-28T03:34:06.485Z,23.80
2022-08-28T03:35:06.479Z,23.40
2022-08-28T03:36:06.464Z,22.80
2022-08-28T03:37:06.455Z,22.70
2022-08-28T03:38:06.500Z,23.90
2022-08-28T03:39:06.452Z,23.80
2022-08-28T03:40:06.446Z,23.60
2022-08-28T03:41:06.427Z,22.30
2022-08-28T03:42:06.400Z,21.60
2022-08-28T03:43:06.950Z,20.80
2022-08-28T03:44:06.379Z,21.50
2022-08-28T03:45:06.372Z,21.50
2022-08-28T03:46:06.414Z,21.10
2022-08-28T03:47:06.350Z,22.60
2022-08-28T03:48:06.417Z,21.70
2022-08-28T03:49:06.332Z,22.20
2022-08-28T03:50:06.318Z,22.90
2022-08-28T03:51:06.311Z,21.30
2022-08-28T03:52:06.297Z,23.80
2022-08-28T03:53:06.314Z,23.10
2022-08-28T03:54:06.280Z,22.90
2022-08-28T03:55:06.271Z,22.00
2022-08-28T03:56:06.258Z,22.00
2022-08-28T03:57:06.257Z,22.20
2022-08-28T03:58:06.299Z,21.20
2022-08-28T03:59:06.231Z,21.50
2022-08-28T04:00:06.219Z,20.60
2022-08-28T04:01:06.242Z,21.00
2022-08-28T04:02:06.199Z,20.50
2022-08-28T04:03:06.254Z,19.90
2022-08-28T04:04:06.176Z,20.70
2022-08-28T04:05:06.174Z,21.70
2022-08-28T04:06:06.157Z,20.70
2022-08-28T04:07:06.151Z,21.70
2022-08-28T04:08:06.215Z,21.60
2022-08-28T04:09:06.152Z,22.10
2022-08-28T04:10:06.115Z,21.80
2022-08-28T04:11:06.111Z,21.90
2022-08-28T04:12:06.100Z,21.90
2022-08-28T04:13:06.093Z,22.90
2022-08-28T04:14:06.101Z,24.20
2022-08-28T04:15:07.093Z,26.50
2022-08-28T04:16:06.588Z,26.50
2022-08-28T04:17:06.109Z,26.40
2022-08-28T04:18:06.078Z,26.20
2022-08-28T04:19:06.048Z,28.00
2022-08-28T04:20:06.018Z,27.30
2022-08-28T04:21:06.010Z,27.30
2022-08-28T04:22:05.994Z,26.60
2022-08-28T04:23:05.989Z,26.00
2022-08-28T04:24:09.516Z,26.90
2022-08-28T04:25:05.969Z,26.30
2022-08-28T04:26:05.951Z,25.40
2022-08-28T04:27:05.943Z,26.10
2022-08-28T04:28:05.971Z,26.20
2022-08-28T04:29:05.941Z,26.70
2022-08-28T04:30:05.907Z,27.00
2022-08-28T04:31:05.951Z,26.40
2022-08-28T04:32:05.912Z,26.30
2022-08-28T04:33:05.884Z,26.10
2022-08-28T04:34:05.908Z,26.60
2022-08-28T04:35:05.861Z,26.60
2022-08-28T04:36:05.846Z,26.10
2022-08-28T04:37:05.844Z,27.90
2022-08-28T04:38:05.828Z,27.10
2022-08-28T04:39:05.851Z,27.60
2022-08-28T04:40:05.834Z,27.40
2022-08-28T04:41:05.800Z,27.40
2022-08-28T04:42:05.788Z,28.00
2022-08-28T04:43:05.784Z,27.00
2022-08-28T04:44:05.782Z,27.50
2022-08-28T04:45:05.762Z,27.30
2022-08-28T04:46:05.796Z,25.70
2022-08-28T04:47:06.275Z,27.50
2022-08-28T04:48:05.739Z,27.30
2022-08-28T04:49:05.747Z,26.70
2022-08-28T04:50:05.706Z,27.00
2022-08-28T04:51:05.700Z,27.80
2022-08-28T04:52:05.687Z,28.50
2022-08-28T04:53:05.683Z,27.50
2022-08-28T04:54:05.684Z,27.20
2022-08-28T04:55:05.661Z,27.30
2022-08-28T04:56:05.644Z,26.90
2022-08-28T04:57:06.472Z,27.70
2022-08-28T04:58:05.671Z,27.70
2022-08-28T04:59:05.641Z,26.90
2022-08-28T05:00:05.604Z,27.00
2022-08-28T05:01:05.626Z,27.70
2022-08-28T05:02:05.657Z,28.10
2022-08-28T05:03:05.577Z,27.10
2022-08-28T05:04:05.586Z,27.50
2022-08-28T05:05:05.557Z,26.20
2022-08-28T05:06:05.542Z,26.40
2022-08-28T05:07:05.545Z,26.30
2022-08-28T05:08:05.522Z,26.40
2022-08-28T05:09:05.539Z,26.00
2022-08-28T05:10:05.503Z,25.60
2022-08-28T05:11:05.496Z,24.60
2022-08-28T05:12:05.480Z,25.60
2022-08-28T05:13:05.474Z,25.60
2022-08-28T05:14:05.513Z,25.50
2022-08-28T05:15:05.455Z,24.30
2022-08-28T05:16:05.478Z,25.20
2022-08-28T05:17:05.435Z,24.40
2022-08-28T05:18:06.605Z,24.90
2022-08-28T05:19:05.433Z,24.90
2022-08-28T05:20:05.866Z,24.40
2022-08-28T05:21:05.409Z,23.40
2022-08-28T05:22:05.384Z,24.40
2022-08-28T18:38:36.382Z,5.60
2022-08-28T18:39:37.366Z,5.80
2022-08-28T18:40:37.380Z,5.60
2022-08-28T18:41:43.979Z,5.60
2022-08-28T18:42:37.337Z,6.30
2022-08-28T18:43:37.341Z,6.00
2022-08-28T18:44:37.309Z,5.30
2022-08-28T18:45:37.295Z,5.60
2022-08-28T18:46:37.356Z,5.20
2022-08-28T18:47:37.514Z,5.40
2022-08-28T18:48:37.285Z,5.50
2022-08-28T18:49:37.259Z,5.70
2022-08-28T18:50:37.254Z,5.10
2022-08-28T18:51:37.233Z,5.70
2022-08-28T18:52:37.223Z,5.40
2022-08-28T18:53:37.243Z,5.40
2022-08-28T18:54:37.201Z,5.60
2022-08-28T18:55:37.196Z,5.70
2022-08-28T18:56:38.347Z,5.70
2022-08-28T18:57:37.173Z,5.70
2022-08-28T18:58:37.179Z,5.60
2022-08-28T18:59:37.153Z,5.50
2022-08-28T19:00:37.138Z,5.30
2022-08-28T19:01:37.281Z,5.30
2022-08-28T19:02:41.479Z,5.50
2022-08-28T19:03:37.131Z,5.70
2022-08-28T19:04:37.103Z,5.80
2022-08-28T19:05:37.093Z,5.50
2022-08-28T19:06:37.077Z,5.80
2022-08-28T19:07:37.070Z,5.70
2022-08-28T19:08:37.079Z,5.90
2022-08-28T19:09:37.048Z,6.10
2022-08-28T19:10:37.038Z,6.10
2022-08-28T19:11:37.028Z,6.00
2022-08-28T19:12:37.022Z,6.30
2022-08-28T19:13:37.033Z,6.10
2022-08-28T19:14:37.000Z,6.00
2022-08-28T19:15:37.035Z,6.20
2022-08-28T19:16:36.980Z,6.00
2022-08-28T19:17:36.973Z,5.60
2022-08-28T19:18:36.979Z,5.90
2022-08-28T19:19:36.953Z,5.90
2022-08-28T19:20:36.954Z,6.00
2022-08-28T19:21:36.934Z,6.00
2022-08-28T19:22:36.913Z,6.40
2022-08-28T19:23:36.929Z,6.30
2022-08-28T19:24:36.895Z,6.00
2022-08-28T19:25:36.902Z,6.10
2022-08-28T19:26:36.874Z,6.50
2022-08-28T19:27:36.869Z,6.20
2022-08-28T19:28:36.888Z,6.30
2022-08-28T19:29:36.863Z,6.20
2022-08-28T19:30:36.837Z,6.20
2022-08-28T19:31:36.924Z,6.50
2022-08-28T19:32:36.814Z,6.60
2022-08-28T19:33:36.826Z,6.70
2022-08-28T19:34:36.845Z,6.20
2022-08-28T19:35:36.784Z,6.10
2022-08-28T19:36:36.773Z,6.20
2022-08-28T19:37:39.738Z,6.90
2022-08-28T19:38:36.801Z,6.90
2022-08-28T19:39:36.744Z,6.80
2022-08-28T19:40:36.799Z,6.60
2022-08-28T19:41:36.727Z,6.50
2022-08-28T19:42:36.711Z,6.70
2022-08-28T19:43:43.247Z,6.40
2022-08-28T19:44:36.701Z,6.50
2022-08-28T19:45:36.682Z,6.80
2022-08-28T19:46:36.733Z,7.30
2022-08-28T19:47:36.663Z,6.50
2022-08-28T19:48:36.668Z,6.90
2022-08-28T19:49:36.642Z,6.50
2022-08-28T19:50:36.640Z,6.40
2022-08-28T19:51:36.628Z,6.80
2022-08-28T19:52:36.610Z,6.70
2022-08-28T19:53:36.622Z,6.60
2022-08-28T19:54:36.589Z,7.10
2022-08-28T19:55:36.579Z,6.80
2022-08-28T19:56:36.568Z,6.80
2022-08-28T19:57:36.561Z,7.10
2022-08-28T19:58:36.565Z,7.00
2022-08-28T19:59:36.541Z,7.10
2022-08-28T20:00:36.527Z,6.90
2022-08-28T20:01:36.575Z,6.80
2022-08-28T20:02:36.576Z,6.80
2022-08-28T20:03:36.526Z,7.20
2022-08-28T20:04:36.486Z,7.30
2022-08-28T20:05:38.361Z,7.00
2022-08-28T20:06:36.467Z,7.30
2022-08-28T20:07:36.462Z,7.00
2022-08-28T20:08:36.469Z,6.60
2022-08-28T20:09:36.445Z,6.10
2022-08-28T20:10:36.434Z,7.00
2022-08-28T20:11:36.424Z,6.80
2022-08-28T20:12:36.435Z,7.40
2022-08-28T20:13:36.403Z,6.80
2022-08-28T20:14:36.406Z,6.70
2022-08-28T20:15:36.451Z,6.40
2022-08-28T20:16:36.370Z,7.00
2022-08-28T20:17:43.689Z,7.20
2022-08-28T20:18:36.351Z,6.80
2022-08-28T20:19:36.361Z,7.10
2022-08-28T20:20:36.327Z,6.90
2022-08-28T20:21:37.126Z,6.10
2022-08-28T20:22:36.304Z,6.60
2022-08-28T20:23:36.300Z,6.80
2022-08-28T20:24:36.306Z,6.60
2022-08-28T20:25:36.400Z,7.10
2022-08-28T20:26:36.264Z,6.60
2022-08-28T20:27:36.256Z,6.60
2022-08-28T20:28:36.252Z,6.30
2022-08-28T20:29:36.258Z,6.60
2022-08-28T20:30:36.267Z,6.30
2022-08-28T20:31:36.216Z,6.50
2022-08-28T20:32:36.200Z,6.80
2022-08-28T20:33:36.212Z,6.40
2022-08-28T20:34:36.203Z,6.90
2022-08-28T20:35:36.177Z,6.50
2022-08-28T20:36:36.161Z,6.50
2022-08-28T20:37:41.058Z,6.10
2022-08-28T20:38:36.169Z,6.00
2022-08-28T20:39:36.139Z,6.90
2022-08-28T20:40:36.181Z,6.30
2022-08-28T20:41:36.116Z,6.60
2022-08-28T20:42:36.102Z,6.50
2022-08-28T20:43:36.113Z,6.30
2022-08-28T20:44:36.084Z,6.60
2022-08-28T20:45:36.088Z,6.50
2022-08-28T20:46:40.779Z,6.50
2022-08-28T20:47:36.056Z,6.30
2022-08-28T20:48:36.049Z,6.90
2022-08-28T20:49:39.010Z,6.70
2022-08-28T20:50:36.021Z,6.60
2022-08-28T20:51:36.008Z,6.50
2022-08-28T20:52:36.004Z,6.80
2022-08-28T20:53:37.717Z,6.40
2022-08-28T20:54:35.981Z,6.70
2022-08-28T20:55:35.966Z,6.60
2022-08-28T20:56:35.964Z,6.80
2022-08-28T20:57:35.961Z,7.10
2022-08-28T20:58:35.963Z,6.70
2022-08-28T20:59:40.174Z,7.20
2022-08-28T21:00:35.982Z,7.00
2022-08-28T21:01:35.938Z,6.60
2022-08-28T21:02:36.145Z,6.40
2022-08-28T21:03:35.890Z,6.50
2022-08-28T21:04:35.950Z,7.00
2022-08-28T21:05:35.864Z,7.00
2022-08-28T21:06:35.859Z,6.50
2022-08-28T21:07:35.846Z,7.00
2022-08-28T21:08:35.858Z,6.50
2022-08-28T21:10:01.444Z,6.60
2022-08-28T21:10:35.823Z,6.80
2022-08-28T21:11:35.823Z,7.00
2022-08-28T21:12:35.818Z,6.40
2022-08-28T21:13:35.810Z,7.00
2022-08-28T21:14:35.778Z,7.00
2022-08-28T21:15:35.764Z,6.70
2022-08-28T21:16:35.796Z,6.90
2022-08-28T21:17:35.742Z,6.60
2022-08-28T21:18:35.756Z,6.60
2022-08-28T21:19:40.131Z,6.50
2022-08-28T21:20:35.723Z,6.30
2022-08-28T21:21:35.701Z,6.50
2022-08-28T21:22:36.133Z,6.60
2022-08-28T21:23:35.707Z,6.30
2022-08-28T21:24:35.675Z,6.80
2022-08-28T21:25:35.658Z,6.60
2022-08-28T21:26:35.654Z,6.70
2022-08-28T21:27:35.650Z,6.60
2022-08-28T21:28:35.668Z,6.40
2022-08-28T21:29:35.643Z,6.40
2022-08-28T21:30:35.688Z,6.80
2022-08-28T21:31:35.661Z,6.70
2022-08-28T21:32:35.593Z,6.60
2022-08-28T21:33:35.580Z,7.40
2022-08-28T21:34:35.748Z,7.10
2022-08-28T21:35:35.558Z,7.10
2022-08-28T21:36:36.271Z,6.80
2022-08-28T21:37:35.555Z,7.00
2022-08-28T21:38:35.551Z,6.60
2022-08-28T21:39:36.695Z,7.20
2022-08-28T21:40:35.530Z,7.00
2022-08-28T21:41:35.524Z,6.90
2022-08-28T21:42:35.510Z,7.50
2022-08-28T21:43:35.490Z,6.90
2022-08-28T21:44:35.510Z,6.80
2022-08-28T21:45:41.663Z,7.30
2022-08-28T21:46:35.553Z,7.10
2022-08-28T21:47:35.441Z,7.10
2022-08-28T21:48:35.436Z,7.20
2022-08-28T21:49:35.457Z,7.10
2022-08-28T21:50:35.486Z,7.70
2022-08-28T21:51:35.661Z,7.50
2022-08-28T21:52:35.547Z,7.20
2022-08-28T21:53:35.384Z,7.30
2022-08-28T21:54:35.398Z,7.30
2022-08-28T21:55:35.361Z,7.30
2022-08-28T21:56:35.480Z,7.80
2022-08-28T21:57:35.340Z,7.40
2022-08-28T21:58:35.337Z,7.60
2022-08-28T21:59:38.068Z,7.50
2022-08-28T22:00:35.316Z,7.80
2022-08-28T22:01:35.369Z,8.80
2022-08-28T22:02:35.324Z,9.30
2022-08-28T22:03:35.273Z,12.10
2022-08-28T22:04:35.291Z,9.60
2022-08-28T22:05:35.273Z,8.00
2022-08-28T22:06:35.260Z,9.20
2022-08-28T22:07:35.236Z,9.50
2022-08-28T22:08:35.261Z,9.30
2022-08-28T22:09:35.236Z,8.90
2022-08-28T22:10:38.623Z,8.50
2022-08-28T22:11:35.202Z,8.90
2022-08-28T22:12:35.259Z,8.20
2022-08-28T22:13:36.148Z,8.30
2022-08-28T22:14:35.192Z,8.60
2022-08-28T22:15:35.161Z,8.70
2022-08-28T22:16:35.190Z,7.50
2022-08-28T22:17:35.137Z,7.40
2022-08-28T22:18:35.144Z,8.20
2022-08-28T22:19:35.142Z,7.70
2022-08-28T22:20:35.112Z,7.80
2022-08-28T22:21:35.341Z,7.70
2022-08-28T22:22:36.526Z,7.70
2022-08-28T22:23:35.071Z,7.40
2022-08-28T22:24:35.201Z,8.50
2022-08-28T22:25:40.740Z,8.10
2022-08-28T22:26:35.069Z,8.10
2022-08-28T22:27:35.030Z,8.10
2022-08-28T22:28:35.270Z,7.90
2022-08-28T22:29:35.028Z,7.80
2022-08-28T22:30:35.005Z,8.50
2022-08-28T22:31:35.061Z,8.10
2022-08-28T22:32:34.996Z,8.00
2022-08-28T22:33:34.968Z,8.60
2022-08-28T22:34:34.995Z,8.50
2022-08-28T22:35:34.958Z,8.10
2022-08-28T22:36:35.188Z,8.20
2022-08-28T22:37:34.940Z,8.10
2022-08-28T22:38:34.929Z,8.00
2022-08-28T22:39:34.926Z,8.40
2022-08-28T22:40:35.138Z,8.40
2022-08-28T22:41:34.883Z,8.60
2022-08-28T22:42:34.907Z,8.60
2022-08-28T22:43:34.878Z,8.20
2022-08-28T22:44:34.881Z,8.10
2022-08-28T22:45:34.932Z,8.10
2022-08-28T22:46:34.851Z,8.50
2022-08-28T22:47:34.841Z,8.10
2022-08-28T22:48:34.832Z,8.60
2022-08-28T22:49:34.852Z,8.50
2022-08-28T22:50:34.835Z,8.20
2022-08-28T22:51:34.802Z,7.50
2022-08-28T22:52:34.777Z,8.40
2022-08-28T22:53:34.763Z,8.30
2022-08-28T22:54:34.795Z,7.60
2022-08-28T22:55:35.618Z,8.20
2022-08-28T22:56:35.674Z,7.60
2022-08-28T22:57:34.726Z,7.60
2022-08-28T22:58:34.726Z,7.80
2022-08-28T22:59:34.730Z,7.40
2022-08-28T23:00:34.708Z,7.70
2022-08-28T23:01:34.685Z,7.50
2022-08-28T23:02:34.726Z,7.70
2022-08-28T23:03:34.803Z,7.60
2022-08-28T23:04:34.686Z,8.10
2022-08-28T23:05:34.666Z,8.00
2022-08-28T23:06:34.643Z,8.10
2022-08-28T23:07:34.650Z,8.10
2022-08-28T23:08:34.615Z,7.80
2022-08-28T23:09:36.059Z,7.80
2022-08-28T23:10:55.605Z,8.00
2022-08-28T23:11:34.766Z,7.90
2022-08-28T23:12:34.576Z,8.30
2022-08-28T23:13:34.563Z,8.00
2022-08-28T23:14:34.596Z,7.80
2022-08-28T23:15:34.540Z,8.20
2022-08-28T23:16:35.380Z,7.80
2022-08-28T23:17:34.530Z,7.90
2022-08-28T23:18:51.896Z,8.30
2022-08-28T23:19:34.526Z,8.30
2022-08-28T23:20:34.683Z,8.10
2022-08-28T23:21:34.487Z,7.80
2022-08-28T23:22:34.475Z,8.10
2022-08-28T23:23:34.464Z,8.10
2022-08-28T23:24:34.485Z,8.40
2022-08-28T23:25:34.450Z,8.20
2022-08-28T23:26:34.439Z,8.10
2022-08-28T23:27:36.643Z,7.70
2022-08-28T23:28:34.410Z,7.30
2022-08-28T23:29:34.424Z,8.40
2022-08-28T23:30:34.391Z,7.80
2022-08-28T23:31:34.418Z,8.10
2022-08-28T23:32:34.373Z,7.30
2022-08-28T23:33:35.191Z,7.80
2022-08-28T23:34:34.369Z,8.40
2022-08-28T23:35:34.334Z,7.60
2022-08-28T23:36:35.524Z,8.10
2022-08-28T23:37:34.330Z,8.10
2022-08-28T23:38:34.309Z,8.10
2022-08-28T23:39:34.324Z,8.20
2022-08-28T23:40:35.224Z,7.70
2022-08-28T23:41:34.269Z,8.10
2022-08-28T23:42:34.277Z,7.40
2022-08-28T23:43:34.259Z,7.80
2022-08-28T23:44:34.284Z,7.60
2022-08-28T23:45:34.279Z,7.50
2022-08-28T23:46:34.225Z,7.70
2022-08-28T23:47:34.216Z,8.20
2022-08-28T23:48:35.276Z,7.60
2022-08-28T23:49:34.251Z,7.80
2022-08-28T23:50:34.193Z,7.40
2022-08-28T23:51:34.185Z,7.90
2022-08-28T23:52:34.184Z,8.10
2022-08-28T23:53:34.150Z,7.80
2022-08-28T23:54:34.174Z,7.70
2022-08-28T23:55:34.128Z,7.80
2022-08-28T23:56:34.130Z,7.20
2022-08-28T23:57:34.113Z,7.70
2022-08-28T23:58:34.104Z,7.70
2022-08-28T23:59:34.113Z,7.40
